メインページ
METAR-TAF:

METAR-TAF

空港 :

グラン・カナリア島, スペイン

グラン・カナリア空港

緯度: 27-56N, 経度: 015-23W, 海抜: 23m

現時点の気象観測

当レポートは32分前の23:00(UTC)に作成
の風 13kt、北西から北/北東の間で変化する
気温 20°C
湿度 68%
気圧 1019 hPa
視程10km以上
高度2500ftの雲はほとんどない
高度4000ftの雲は散在している

METAR: GCLP 232300Z 35013KT 320V020 9999 FEW025 SCT040 20/14 Q1019 NOSIG

時間: 00:32 (23:32 UTC)

予報

当レポートは3時間32分前の20:00(UTC)に作成
予報は23日の 21時(UTC)から 24日の 21時(UTC)まで有効
の風 18kt
視程10km以上
高度2500ftの雲はほとんどない
確率 40% :
24日の 11時(UTC)から 24日の 20時(UTC)まで一時的に
北/北東の風 20kt、最大30ktの突風を伴う

TAF: GCLP 232000Z 2321/2421 01018KT 9999 FEW025 TX24/2413Z TN18/2406Z PROB40 TEMPO 2411/2420 03020G30KT

4,000以上の空港の気象観測と天気予報(METAR報とTAF報)

利用可能な観測所は地図上に黄色い丸と赤い丸で示す。

丸の上にカーソルを重ねると観測所名を参照できる。

次にクリックすると気象観測と天気予報を参照できる。

マップの切り替え:黒色「×」印の緑ボタンをクリックして拡大、「-」印の緑ボタンをクリックして縮小、緑色の三角印をクリックして隣りの地図に切り替え


METAR-TAF: